AirNav   Pilot Hours Calculator
 
 615 users online  

CL35 Warner Springs Gliderport
Warner Springs, California, USA

GOING TO WARNER SPRINGS?


FAA INFORMATION EFFECTIVE 26 MARCH 2020

Location

FAA Identifier: CL35
Lat/Long: 33-17-04.2100N 116-40-10.7650W
33-17.070167N 116-40.179417W
33.2845028,-116.6696569
(estimated)
Elevation: 2880 ft. / 878 m (estimated)
Variation: 13E (1985)
From city: 2 miles E of WARNER SPRINGS, CA
Time zone: UTC -7 (UTC -8 during Standard Time)
Zip code: 92086

Gliderport Operations

Gliderport use: Private use. Permission required prior to landing
Activation date: 10/1984
Control tower: no
ARTCC: LOS ANGELES CENTER
FSS: SAN DIEGO FLIGHT SERVICE STATION
Attendance: 0900-1700
Wind indicator: yes
Segmented circle: yes
Landing fee: yes

Gliderport Communications

UNICOM: 122.8
WX AWOS-3P at L08 (18 nm E): 126.575 (760-767-3308)
WX ASOS at RNM (19 nm SW): PHONE 760-789-7699

Nearby radio navigation aids

VOR radial/distance  VOR name  Freq  Var
JLIr319/9.6JULIAN VORTAC114.0015E
TRMr218/32.8THERMAL VORTAC116.2013E
PSPr186/37.1PALM SPRINGS VORTAC115.5013E
OCNr071/37.6OCEANSIDE VORTAC115.3015E
HDFr125/(39.2)HOMELAND VOR113.4014E

Gliderport Services

Runway Information

Runway 8/26

Dimensions: 3500 x 70 ft. / 1067 x 21 m
Surface: asphalt
RUNWAY 8  RUNWAY 26
Latitude: 33-17.060333N33-17.080000N
Longitude: 116-40.522667W116-39.836167W
Elevation: 2873.0 ft.2914.0 ft.
Traffic pattern: leftleft
Obstructions: none200 ft. hill, 5200 ft. from runway

Gliderport Ownership and Management from official FAA records

Ownership: Privately-owned
Owner: WARNER SPRINGS RANCH RESORT, LLC
31930 HWY 79
WARNER SPRINGS, CA 92086
Phone 760-782-4200
SKY SAILING 31930 HWY 79.
Manager: BRET WILLAT
SKY SAILING 31930 HWY 79
WARNER SPRINGS, CA 92086
Phone 760-782-0404
LEASEE.

Gliderport Operational Statistics

Aircraft based on the field: 80
Single engine airplanes: 10
Gliders airplanes: 70
    

Additional Remarks

FOR CD CTC LOS ANGELES ARTCC AT 661-575-2079.

Instrument Procedures

There are no published instrument procedures at CL35.

Some nearby airports with instrument procedures:

L08 - Borrego Valley Airport (18 nm E)
KRNM - Ramona Airport (19 nm SW)
F70 - French Valley Airport (29 nm NW)
L18 - Fallbrook Community Airpark (29 nm W)
KSEE - Gillespie Field Airport (31 nm SW)
 
Loc | Ops | Rwys | IFR | FBO | Links
Com | Nav | Svcs | Stats | Notes
Area around CL35 (Warner Springs Gliderport)
 
Road maps at: MapQuest Bing Google
 
Aerial photo
WARNING: Photo may not be current or correct
Aerial photo of CL35 (Warner Springs Gliderport)
Photo by Steve Lupinacci
Photo taken 27-May-2008

Do you have a better or more recent aerial photo of Warner Springs Gliderport that you would like to share? If so, please send us your photo.

 
Sectional chart

 
Airport distance calculator
Flying to Warner Springs Gliderport? Find the distance to fly.

From to CL35

Sunrise and sunset
Times for 04-Apr-2020
 Local
(UTC-7)
 Zulu
(UTC)
Morning civil twilight06:0513:05
Sunrise06:3013:30
Sunset19:0902:09
Evening civil twilight19:3402:34

Current date and time
Zulu (UTC)  05-Apr-2020 03:42:28
Local (UTC-7)  04-Apr-2020 20:42:28
 
METAR
KL08 
18nm E 
050315Z AUTO 14006KT 10SM SCT048 SCT055 18/06 A2978 RMK AO2
KRNM 
20nm SW 
050253Z 19007KT 10SM FEW016 OVC027 12/09 A2990 RMK AO2 SLP119 T01170089 53008
KF70 
29nm NW 
050315Z AUTO 21008KT 10SM OVC015 12/09 A2989 RMK AO1
KL18 
29nm W 
050315Z AUTO 20004KT 10SM BKN028 OVC034 12/09 A2990 RMK AO2
KSEE 
32nm SW 
050247Z 22005KT 6SM BR OVC026 15/09 A2991
KCRQ 
32nm W 
050253Z 20006KT 10SM FEW017 OVC030 15/09 A2989 RMK AO2 SLP119 T01500094 51008 $
KHMT 
32nm NW 
050315Z AUTO 20008KT 10SM OVC014 12/10 A2988 RMK AO2 T01190095
KTRM 
33nm NE 
050252Z AUTO 34016KT 10SM CLR 23/07 A2969 RMK AO2 SLP055 T02280072 53008
KPSP 
33nm N 
050253Z 10SM CLR 23/06 A2972 RMK AO2 SLP062 T02280061 53002
KNFG 
33nm W 
050314Z 21003KT 10SM BKN029 OVC035 16/08 A2990 RMK AO2 T01560083 $
TAF
KCRQ 
32nm W 
041809Z 0418/0518 20011KT P6SM FEW025 BKN035 FM050100 19008KT P6SM BKN020 FM051500 VRB05KT P6SM BKN025
KTRM 
33nm NE 
041811Z 0418/0518 31012G20KT P6SM SKC FM051200 32010KT P6SM SKC
KPSP 
33nm N 
041811Z 0418/0518 35012G20KT P6SM SKC FM051200 33007KT P6SM SKC
KNFG 
33nm W 
0421/0521 22007KT 9999 OVC030 QNH2980INS BECMG 0503/0505 VRB05KT 9999 OVC020 QNH2985INS TEMPO 0515/0521 6000 -RA BR T19/0421Z T09/0511Z
KNKX 
34nm SW 
0422/0521 21010G22KT 9999 BKN030 QNH2982INS TEMPO 0501/0507 VRB05KT FM051600 25010KT 9999 BKN030 QNH2990INS TEMPO 0515/0521 6000 -RA BR T18/0421Z T10/0510Z AMD 042222
NOTAMs
Click for the latest NOTAMs
NOTAMs are issued by the DoD/FAA and will open in a separate window not controlled by AirNav.

 

 
 

Would you like to see your business listed on this page?

 If your business provides an interesting product or service to pilots, flight crews, aircraft, or users of the Warner Springs Gliderport, you should consider listing it here.  To start the listing process, click on the button below
 
Add a business
 

Other Pages about Warner Springs Gliderport

www.agcsc.org/warner_springs_info.html
 
Update a link
 
Copyright © AirNav, LLC. All rights reserved. Privacy Policy  Contact